createdAt,value
2023-03-29T00:00:19.504Z,81.68
2023-03-29T00:01:35.789Z,81.48
2023-03-29T00:02:19.703Z,81.72
2023-03-29T00:03:19.589Z,81.48
2023-03-29T00:04:19.439Z,81.68
2023-03-29T00:05:19.525Z,81.79
2023-03-29T00:06:19.409Z,81.89
2023-03-29T00:07:19.395Z,81.48
2023-03-29T00:08:19.659Z,81.37
2023-03-29T00:09:19.401Z,81.37
2023-03-29T00:10:19.365Z,81.37
2023-03-29T00:11:19.346Z,81.48
2023-03-29T00:12:19.330Z,81.48
2023-03-29T00:13:19.340Z,81.27
2023-03-29T00:14:19.308Z,81.17
2023-03-29T00:15:19.334Z,81.17
2023-03-29T00:16:19.303Z,81.48
2023-03-29T00:17:19.266Z,81.37
2023-03-29T00:18:19.307Z,81.17
2023-03-29T00:19:19.233Z,81.27
2023-03-29T00:20:19.264Z,81.34
2023-03-29T00:21:19.215Z,81.17
2023-03-29T00:22:19.291Z,81.27
2023-03-29T00:23:19.213Z,80.96
2023-03-29T00:24:19.168Z,81.27
2023-03-29T00:25:19.176Z,81.68
2023-03-29T00:26:19.159Z,81.37
2023-03-29T00:27:19.237Z,81.48
2023-03-29T00:28:19.161Z,81.58
2023-03-29T00:29:19.216Z,81.37
2023-03-29T00:30:19.110Z,81.48
2023-03-29T00:31:19.110Z,81.58
2023-03-29T00:32:19.130Z,81.68
2023-03-29T00:33:19.092Z,81.68
2023-03-29T00:34:19.057Z,81.58
2023-03-29T00:35:19.043Z,81.79
2023-03-29T00:36:19.028Z,81.58
2023-03-29T00:37:18.998Z,81.37
2023-03-29T00:38:19.090Z,81.48
2023-03-29T00:39:18.977Z,81.37
2023-03-29T00:40:19.049Z,81.79
2023-03-29T00:41:18.969Z,81.93
2023-03-29T00:42:19.063Z,81.93
2023-03-29T00:43:18.955Z,82.24
2023-03-29T00:44:18.928Z,82.24
2023-03-29T00:45:19.022Z,81.93
2023-03-29T00:46:18.937Z,81.72
2023-03-29T00:47:18.868Z,81.93
2023-03-29T00:48:18.987Z,82.03
2023-03-29T00:49:18.858Z,81.72
2023-03-29T00:50:18.834Z,81.82
2023-03-29T00:51:18.927Z,81.72
2023-03-29T00:52:18.900Z,81.76
2023-03-29T00:53:18.789Z,81.86
2023-03-29T00:54:18.846Z,81.96
2023-03-29T00:55:18.777Z,82.38
2023-03-29T00:56:18.858Z,82.38
2023-03-29T00:57:18.812Z,82.28
2023-03-29T00:58:18.763Z,81.86
2023-03-29T00:59:18.759Z,81.80
2023-03-29T01:00:18.740Z,82.00
2023-03-29T01:01:18.788Z,82.21
2023-03-29T01:02:18.854Z,81.70
2023-03-29T01:03:18.743Z,81.28
2023-03-29T01:04:18.758Z,81.07
2023-03-29T01:05:18.652Z,80.97
2023-03-29T01:06:18.645Z,80.97
2023-03-29T01:07:18.702Z,81.07
2023-03-29T01:08:18.712Z,81.18
2023-03-29T01:09:18.583Z,81.28
2023-03-29T01:10:18.583Z,81.42
2023-03-29T01:11:18.725Z,81.42
2023-03-29T01:12:18.603Z,81.42
2023-03-29T01:13:18.546Z,81.01
2023-03-29T01:14:18.548Z,80.70
2023-03-29T01:15:18.525Z,80.49
2023-03-29T01:16:18.569Z,80.04
2023-03-29T01:17:18.482Z,79.52
2023-03-29T01:18:18.542Z,79.42
2023-03-29T01:19:18.463Z,79.11
2023-03-29T01:20:18.453Z,79.01
2023-03-29T01:21:18.553Z,78.66
2023-03-29T01:22:18.444Z,78.14
2023-03-29T01:23:18.420Z,78.05
2023-03-29T01:24:18.415Z,77.53
2023-03-29T01:25:18.407Z,77.53
2023-03-29T01:26:18.501Z,77.11
2023-03-29T01:27:18.369Z,77.11
2023-03-29T01:28:18.375Z,77.04
2023-03-29T01:29:18.432Z,77.15
2023-03-29T01:30:18.327Z,77.04
2023-03-29T01:31:18.316Z,77.04
2023-03-29T01:32:18.306Z,76.94
2023-03-29T01:33:18.389Z,76.73
2023-03-29T01:34:18.303Z,76.53
2023-03-29T01:35:18.287Z,76.53
2023-03-29T01:36:18.357Z,75.91
2023-03-29T01:37:18.282Z,75.98
2023-03-29T01:38:18.254Z,75.57
2023-03-29T01:39:18.205Z,74.63
2023-03-29T01:40:18.200Z,74.33
2023-03-29T01:41:18.263Z,74.22
2023-03-29T01:42:18.200Z,73.98
2023-03-29T01:43:18.169Z,73.26
2023-03-29T01:44:18.172Z,72.61
2023-03-29T01:45:18.122Z,72.40
2023-03-29T01:46:18.180Z,72.50
2023-03-29T01:47:18.131Z,72.50
2023-03-29T01:48:18.180Z,72.85
2023-03-29T01:49:18.089Z,73.16
2023-03-29T01:50:18.069Z,72.85
2023-03-29T01:51:18.069Z,73.05
2023-03-29T01:52:18.039Z,73.57
2023-03-29T01:53:18.060Z,73.81
2023-03-29T01:54:18.017Z,74.43
2023-03-29T01:55:18.023Z,74.63
2023-03-29T01:56:18.009Z,74.33
2023-03-29T01:57:18.030Z,74.84
2023-03-29T01:58:18.014Z,74.95
2023-03-29T01:59:17.953Z,75.49
2023-03-29T02:00:17.955Z,75.70
2023-03-29T02:01:17.963Z,75.81
2023-03-29T02:02:17.970Z,76.32
2023-03-29T02:03:18.022Z,76.01
2023-03-29T02:04:17.969Z,76.36
2023-03-29T02:05:17.877Z,76.22
2023-03-29T02:06:17.864Z,76.01
2023-03-29T02:07:17.860Z,75.60
2023-03-29T02:08:17.960Z,75.91
2023-03-29T02:09:17.858Z,75.57
2023-03-29T02:10:17.874Z,75.01
2023-03-29T02:11:17.787Z,75.36
2023-03-29T02:12:17.796Z,75.26
2023-03-29T02:13:17.758Z,75.57
2023-03-29T02:14:18.188Z,75.67
2023-03-29T02:15:17.747Z,75.77
2023-03-29T02:16:17.768Z,76.01
2023-03-29T02:17:17.709Z,76.18
2023-03-29T02:18:17.724Z,76.22
2023-03-29T02:19:17.714Z,76.29
2023-03-29T02:20:17.691Z,75.98
2023-03-29T02:21:17.659Z,75.98
2023-03-29T02:22:17.645Z,76.12
2023-03-29T02:23:17.653Z,76.43
2023-03-29T02:24:17.742Z,76.18
2023-03-29T02:25:17.620Z,76.01
2023-03-29T02:26:17.633Z,76.22
2023-03-29T02:27:17.587Z,76.08
2023-03-29T02:28:17.606Z,75.81
2023-03-29T02:29:17.617Z,75.98
2023-03-29T02:30:17.565Z,75.87
2023-03-29T02:31:17.576Z,75.81
2023-03-29T02:32:17.525Z,75.91
2023-03-29T02:33:17.589Z,75.70
2023-03-29T02:34:17.525Z,75.60
2023-03-29T02:35:17.478Z,75.46
2023-03-29T02:36:17.539Z,74.84
2023-03-29T02:37:17.468Z,74.63
2023-03-29T02:38:17.434Z,74.43
2023-03-29T02:39:17.471Z,74.22
2023-03-29T02:40:17.477Z,74.33
2023-03-29T02:41:17.415Z,73.57
2023-03-29T02:42:17.407Z,73.36
2023-03-29T02:43:17.485Z,73.26
2023-03-29T02:44:17.475Z,73.26
2023-03-29T02:45:17.351Z,72.64
2023-03-29T02:46:17.404Z,72.64
2023-03-29T02:47:17.332Z,72.64
2023-03-29T02:48:17.394Z,72.44
2023-03-29T02:49:17.303Z,71.92
2023-03-29T02:50:17.372Z,72.44
2023-03-29T02:51:19.809Z,72.23
2023-03-29T02:52:17.268Z,72.44
2023-03-29T02:53:17.309Z,72.02
2023-03-29T02:54:17.230Z,72.23
2023-03-29T02:55:17.252Z,72.26
2023-03-29T02:56:17.286Z,72.02
2023-03-29T02:57:17.294Z,71.92
2023-03-29T02:58:17.205Z,72.06
2023-03-29T02:59:17.172Z,72.23
2023-03-29T03:00:17.208Z,71.92
2023-03-29T03:01:17.134Z,71.61
2023-03-29T03:02:17.182Z,71.41
2023-03-29T03:03:17.256Z,71.30
2023-03-29T03:04:17.132Z,71.51
2023-03-29T03:05:17.099Z,71.61
2023-03-29T03:06:17.092Z,71.30
2023-03-29T03:07:17.075Z,71.30
2023-03-29T03:08:17.081Z,70.78
2023-03-29T03:09:17.063Z,70.47
2023-03-29T03:10:17.045Z,70.13
2023-03-29T03:11:17.038Z,70.34
2023-03-29T03:12:17.008Z,70.34
2023-03-29T03:13:17.063Z,70.47
2023-03-29T03:14:17.002Z,70.44
2023-03-29T03:15:17.064Z,70.13
2023-03-29T03:16:16.993Z,70.03
2023-03-29T03:17:16.950Z,69.82
2023-03-29T03:18:16.948Z,69.82
2023-03-29T03:19:16.950Z,69.62
2023-03-29T03:20:16.984Z,69.82
2023-03-29T03:21:16.895Z,69.93
2023-03-29T03:22:17.024Z,69.82
2023-03-29T03:23:16.858Z,70.34
2023-03-29T03:24:16.846Z,70.75
2023-03-29T03:25:16.909Z,71.09
2023-03-29T03:26:16.953Z,70.78
2023-03-29T03:27:16.800Z,70.68
2023-03-29T03:28:16.787Z,70.27
2023-03-29T03:29:16.803Z,70.44
2023-03-29T03:30:16.804Z,70.03
2023-03-29T03:31:16.801Z,69.93
2023-03-29T03:32:16.753Z,70.34
2023-03-29T03:33:16.732Z,70.34
2023-03-29T03:34:16.714Z,70.03
2023-03-29T03:35:16.725Z,70.65
2023-03-29T03:36:16.694Z,70.13
2023-03-29T03:37:16.664Z,69.82
2023-03-29T03:38:16.663Z,69.31
2023-03-29T03:39:16.656Z,69.72
2023-03-29T03:40:16.673Z,69.82
2023-03-29T03:41:16.619Z,69.82
2023-03-29T03:42:16.612Z,69.93
2023-03-29T03:43:16.616Z,69.51
2023-03-29T03:44:16.601Z,69.41
2023-03-29T03:45:16.618Z,69.31
2023-03-29T03:46:16.644Z,69.82
2023-03-29T03:47:16.599Z,69.72
2023-03-29T03:48:16.546Z,70.03
2023-03-29T03:49:16.520Z,70.03
2023-03-29T03:50:16.937Z,70.17
2023-03-29T03:51:16.506Z,70.23
2023-03-29T03:52:16.549Z,70.03
2023-03-29T03:53:16.462Z,70.03
2023-03-29T03:54:16.454Z,69.93
2023-03-29T03:55:16.471Z,69.82
2023-03-29T03:56:16.487Z,69.51
2023-03-29T03:57:16.460Z,69.93
2023-03-29T03:58:16.396Z,69.62
2023-03-29T03:59:16.525Z,69.72
2023-03-29T04:00:16.373Z,69.85
2023-03-29T04:01:16.372Z,69.75
2023-03-29T04:02:16.544Z,69.51
2023-03-29T04:03:16.480Z,69.62
2023-03-29T04:04:16.421Z,69.51
2023-03-29T04:05:16.342Z,69.69
2023-03-29T04:06:16.374Z,69.51
2023-03-29T04:07:16.272Z,69.41
2023-03-29T04:08:16.279Z,69.62
2023-03-29T04:09:16.336Z,69.62
2023-03-29T04:10:16.285Z,69.96
2023-03-29T04:11:16.223Z,70.68
2023-03-29T04:12:16.228Z,70.47
2023-03-29T04:13:16.199Z,70.47
2023-03-29T04:14:16.237Z,70.99
2023-03-29T04:15:16.203Z,71.30
2023-03-29T04:16:16.217Z,71.09
2023-03-29T04:17:16.191Z,71.20
2023-03-29T04:18:16.375Z,71.41
2023-03-29T04:19:16.118Z,71.30
2023-03-29T04:20:16.137Z,71.30
2023-03-29T04:21:16.913Z,71.41
2023-03-29T04:22:16.095Z,71.61
2023-03-29T04:23:16.105Z,71.81
2023-03-29T04:24:16.126Z,71.81
2023-03-29T04:25:16.058Z,71.71
2023-03-29T04:26:16.043Z,71.81
2023-03-29T04:27:16.094Z,71.92
2023-03-29T04:28:16.034Z,71.71
2023-03-29T04:29:16.003Z,71.47
2023-03-29T04:30:16.086Z,71.89
2023-03-29T04:31:16.020Z,71.99
2023-03-29T04:32:15.980Z,71.89
2023-03-29T04:33:16.015Z,71.99
2023-03-29T04:34:15.956Z,71.89
2023-03-29T04:35:15.952Z,72.09
2023-03-29T04:36:16.021Z,72.30
2023-03-29T04:37:15.894Z,72.30
2023-03-29T04:38:15.895Z,72.50
2023-03-29T04:39:15.938Z,72.61
2023-03-29T04:40:15.875Z,72.71
2023-03-29T04:41:15.872Z,72.92
2023-03-29T04:42:15.898Z,73.16
2023-03-29T04:43:15.838Z,72.92
2023-03-29T04:44:15.818Z,73.22
2023-03-29T04:45:15.781Z,73.54
2023-03-29T04:46:15.793Z,73.64
2023-03-29T04:47:15.728Z,73.64
2023-03-29T04:48:15.784Z,72.99
2023-03-29T04:49:15.681Z,73.12
2023-03-29T04:50:15.731Z,73.22
2023-03-29T04:51:15.664Z,73.74
2023-03-29T04:52:15.657Z,73.64
2023-03-29T04:53:15.656Z,73.95
2023-03-29T04:54:15.684Z,74.05
2023-03-29T04:55:15.668Z,74.77
2023-03-29T04:56:15.612Z,74.67
2023-03-29T04:57:15.626Z,75.01
2023-03-29T04:58:15.587Z,75.39
2023-03-29T04:59:15.561Z,75.60
2023-03-29T05:00:15.732Z,75.49
2023-03-29T05:01:15.552Z,75.84
2023-03-29T05:02:15.595Z,76.15
2023-03-29T05:03:15.511Z,76.32
2023-03-29T05:04:15.562Z,76.01
2023-03-29T05:05:15.613Z,76.46
2023-03-29T05:06:15.485Z,76.63
2023-03-29T05:07:15.486Z,76.56
2023-03-29T05:08:15.505Z,76.63
2023-03-29T05:09:15.443Z,76.73
2023-03-29T05:10:15.498Z,77.28
2023-03-29T05:11:15.438Z,77.15
2023-03-29T05:12:15.392Z,76.94
2023-03-29T05:13:15.377Z,76.84
2023-03-29T05:14:15.393Z,76.94
2023-03-29T05:15:15.396Z,76.80
2023-03-29T05:16:15.365Z,76.73
2023-03-29T05:17:15.392Z,76.70
2023-03-29T05:18:15.314Z,76.59
2023-03-29T05:19:15.309Z,76.15
2023-03-29T05:20:15.319Z,75.94
2023-03-29T05:21:15.342Z,75.94
2023-03-29T05:22:15.273Z,75.94
2023-03-29T05:23:15.250Z,76.04
2023-03-29T05:24:15.308Z,76.04
2023-03-29T05:25:15.246Z,76.15
2023-03-29T05:26:15.240Z,76.15
2023-03-29T05:27:15.214Z,76.21
2023-03-29T05:28:15.248Z,76.46
2023-03-29T05:29:15.178Z,77.38
2023-03-29T05:30:15.215Z,76.97
2023-03-29T05:31:16.925Z,76.83
2023-03-29T05:32:15.189Z,76.73
2023-03-29T05:33:15.119Z,76.73
2023-03-29T05:34:15.104Z,76.53
2023-03-29T05:35:15.146Z,76.07
2023-03-29T05:36:15.127Z,76.28
2023-03-29T05:37:15.067Z,76.18
2023-03-29T05:38:15.067Z,76.42
2023-03-29T05:39:15.110Z,76.53
2023-03-29T05:40:15.052Z,77.59
2023-03-29T05:41:15.020Z,77.76
2023-03-29T05:42:15.008Z,77.14
2023-03-29T05:43:15.089Z,76.83
2023-03-29T05:44:14.976Z,76.83
2023-03-29T05:45:14.989Z,77.55
2023-03-29T05:46:14.996Z,78.11
2023-03-29T05:47:14.954Z,78.28
2023-03-29T05:48:14.948Z,78.28
2023-03-29T05:49:14.986Z,78.72
2023-03-29T05:50:14.913Z,78.69
2023-03-29T05:51:14.930Z,78.58
2023-03-29T05:52:14.883Z,78.75
2023-03-29T05:53:14.863Z,78.48
2023-03-29T05:54:14.898Z,78.38
2023-03-29T05:55:14.852Z,79.10
2023-03-29T05:56:14.877Z,78.44
2023-03-29T05:57:14.834Z,78.96
2023-03-29T05:58:14.796Z,79.99
2023-03-29T05:59:14.871Z,79.79
2023-03-29T06:00:14.775Z,79.68
2023-03-29T06:01:14.793Z,79.88
2023-03-29T06:02:14.757Z,79.79
2023-03-29T06:03:20.864Z,79.85
2023-03-29T06:04:14.852Z,79.75
2023-03-29T06:05:14.721Z,79.88
2023-03-29T06:06:14.923Z,80.51
2023-03-29T06:07:14.689Z,80.81
2023-03-29T06:08:14.716Z,80.16
2023-03-29T06:09:14.653Z,79.64
2023-03-29T06:10:14.663Z,79.71
2023-03-29T06:11:14.729Z,79.61
2023-03-29T06:12:14.670Z,79.71
2023-03-29T06:13:14.601Z,80.43
2023-03-29T06:14:14.614Z,80.12
2023-03-29T06:15:14.582Z,79.98
2023-03-29T06:16:14.585Z,80.94
2023-03-29T06:17:14.674Z,80.91
2023-03-29T06:18:14.541Z,81.21
2023-03-29T06:19:14.532Z,81.11
2023-03-29T06:20:14.593Z,81.32
2023-03-29T06:21:14.538Z,80.91
2023-03-29T06:22:14.974Z,80.15
2023-03-29T06:23:14.499Z,80.01
2023-03-29T06:24:14.454Z,79.70
2023-03-29T06:25:14.539Z,79.05
2023-03-29T06:26:14.448Z,78.64
2023-03-29T06:27:14.424Z,79.49
2023-03-29T06:28:14.420Z,79.94
2023-03-29T06:29:14.407Z,80.15
2023-03-29T06:30:14.454Z,80.56
2023-03-29T06:31:14.474Z,80.21
2023-03-29T06:32:14.368Z,80.15
2023-03-29T06:33:14.362Z,80.05
2023-03-29T06:34:14.363Z,80.05
2023-03-29T06:35:14.332Z,79.19
2023-03-29T06:36:14.337Z,79.74
2023-03-29T06:37:14.326Z,79.53
2023-03-29T06:38:14.282Z,78.81
2023-03-29T06:39:14.287Z,78.88
2023-03-29T06:40:14.247Z,79.19
2023-03-29T06:41:14.269Z,79.84
2023-03-29T06:42:21.106Z,79.19
2023-03-29T06:43:14.237Z,79.53
2023-03-29T06:44:14.198Z,78.98
2023-03-29T06:45:14.263Z,79.74
2023-03-29T06:46:14.261Z,79.49
2023-03-29T06:47:14.166Z,80.01
2023-03-29T06:48:14.150Z,79.49
2023-03-29T06:49:14.135Z,79.80
2023-03-29T06:50:14.163Z,79.70
2023-03-29T06:51:14.154Z,80.46
2023-03-29T06:52:14.100Z,80.52
2023-03-29T06:53:14.104Z,80.42
2023-03-29T06:54:14.059Z,80.63
2023-03-29T06:55:14.125Z,80.07
2023-03-29T06:56:14.090Z,79.87
2023-03-29T06:57:14.060Z,80.07
2023-03-29T06:58:14.087Z,79.66
2023-03-29T06:59:14.012Z,80.01
2023-03-29T07:00:14.026Z,80.11
2023-03-29T07:01:14.078Z,79.66
2023-03-29T07:02:13.999Z,80.28
2023-03-29T07:03:14.095Z,79.66
2023-03-29T07:04:14.001Z,79.36
2023-03-29T07:05:14.017Z,79.66
2023-03-29T07:06:13.958Z,79.66
2023-03-29T07:07:14.051Z,80.28
2023-03-29T07:08:13.943Z,80.18
2023-03-29T07:09:13.892Z,80.49
2023-03-29T07:10:13.941Z,80.14
2023-03-29T07:11:13.889Z,80.07
2023-03-29T07:12:14.052Z,80.24
2023-03-29T07:13:13.818Z,80.14
2023-03-29T07:14:13.847Z,80.24
2023-03-29T07:15:13.792Z,80.45
2023-03-29T07:16:13.969Z,80.49
2023-03-29T07:17:13.816Z,80.65
2023-03-29T07:18:13.768Z,81.06
2023-03-29T07:19:13.733Z,81.27
2023-03-29T07:20:13.723Z,80.65
2023-03-29T07:21:13.736Z,81.37
2023-03-29T07:22:13.716Z,81.64
2023-03-29T07:23:13.740Z,80.72
2023-03-29T07:24:13.684Z,80.92
2023-03-29T07:25:13.670Z,80.21
2023-03-29T07:26:13.909Z,79.72
2023-03-29T07:27:13.643Z,78.28
2023-03-29T07:28:13.686Z,77.67
2023-03-29T07:29:13.611Z,77.02
2023-03-29T07:30:13.590Z,77.50
2023-03-29T07:31:13.599Z,77.47
2023-03-29T07:32:13.677Z,77.23
2023-03-29T07:33:13.673Z,77.02
2023-03-29T07:34:13.804Z,75.65
2023-03-29T07:35:13.589Z,74.84
2023-03-29T07:36:13.559Z,74.84
2023-03-29T07:37:13.652Z,74.63
2023-03-29T07:38:13.510Z,75.38
2023-03-29T07:39:13.486Z,75.35
2023-03-29T07:40:13.552Z,76.20
2023-03-29T07:41:13.474Z,77.16
2023-03-29T07:42:13.474Z,77.16
2023-03-29T07:43:13.446Z,76.44
2023-03-29T07:44:13.421Z,76.92
2023-03-29T07:45:13.450Z,76.51
2023-03-29T07:46:13.434Z,76.81
2023-03-29T07:47:13.392Z,77.12
2023-03-29T07:48:13.490Z,76.40
2023-03-29T07:49:13.364Z,75.35
2023-03-29T07:50:13.350Z,75.42
2023-03-29T07:51:13.312Z,75.17
2023-03-29T07:52:13.315Z,73.94
2023-03-29T07:53:13.356Z,73.81
2023-03-29T07:54:13.288Z,72.72
2023-03-29T07:55:13.264Z,72.00
2023-03-29T07:56:13.246Z,72.52
2023-03-29T07:57:13.384Z,72.41
2023-03-29T07:58:13.221Z,72.48
2023-03-29T07:59:13.208Z,73.23
2023-03-29T08:00:13.250Z,73.13
2023-03-29T08:01:15.234Z,73.85
2023-03-29T08:02:13.190Z,72.99
2023-03-29T08:03:13.444Z,72.38
2023-03-29T08:04:13.231Z,71.83
2023-03-29T08:05:13.241Z,71.53
2023-03-29T08:06:13.138Z,71.91
2023-03-29T08:07:13.172Z,70.64
2023-03-29T08:08:13.086Z,71.02
2023-03-29T08:09:13.077Z,70.06
2023-03-29T08:10:13.103Z,70.27
2023-03-29T08:11:13.051Z,69.69
2023-03-29T08:12:13.074Z,68.13
2023-03-29T08:13:13.022Z,67.29
2023-03-29T08:14:13.045Z,67.79
2023-03-29T08:15:12.999Z,68.20
2023-03-29T08:16:12.989Z,68.91
2023-03-29T08:17:13.100Z,68.57
2023-03-29T08:18:12.998Z,67.83
2023-03-29T08:19:12.953Z,66.61
2023-03-29T08:20:12.950Z,66.07
2023-03-29T08:21:12.978Z,65.16
2023-03-29T08:22:12.927Z,65.12
2023-03-29T08:23:12.891Z,65.50
2023-03-29T08:24:12.895Z,65.30
2023-03-29T08:25:12.928Z,65.09
2023-03-29T08:26:12.850Z,65.30
2023-03-29T08:27:12.907Z,64.51
2023-03-29T08:28:12.902Z,64.78
2023-03-29T08:29:12.828Z,66.30
2023-03-29T08:30:12.813Z,63.86
2023-03-29T08:31:12.996Z,65.55
2023-03-29T08:32:12.804Z,66.19
2023-03-29T08:33:12.807Z,66.16
2023-03-29T08:34:12.756Z,65.99
2023-03-29T08:35:12.819Z,66.03
2023-03-29T08:36:12.731Z,64.67
2023-03-29T08:37:12.741Z,64.17
2023-03-29T08:38:12.717Z,66.13
2023-03-29T08:39:12.704Z,65.68
2023-03-29T08:40:12.683Z,64.63
2023-03-29T08:41:12.658Z,64.56
2023-03-29T08:42:12.697Z,65.31
2023-03-29T08:43:12.629Z,65.17
2023-03-29T08:44:12.628Z,65.58
2023-03-29T08:45:12.609Z,67.32
2023-03-29T08:46:12.676Z,67.21
2023-03-29T08:47:12.614Z,65.86
2023-03-29T08:48:12.551Z,65.78
2023-03-29T08:49:12.565Z,67.08
2023-03-29T08:50:12.543Z,67.69
2023-03-29T08:51:12.522Z,66.03
2023-03-29T08:52:12.525Z,66.41
2023-03-29T08:53:12.495Z,66.91
2023-03-29T08:54:12.599Z,64.98
2023-03-29T08:55:12.465Z,64.95
2023-03-29T08:56:12.473Z,63.83
2023-03-29T08:57:12.485Z,63.83
2023-03-29T08:58:12.425Z,63.86
2023-03-29T08:59:12.430Z,64.97
2023-03-29T09:00:12.388Z,65.55
2023-03-29T09:01:12.396Z,64.84
2023-03-29T09:02:12.511Z,64.53
2023-03-29T09:03:12.413Z,65.11
2023-03-29T09:04:12.357Z,65.22
2023-03-29T09:05:12.345Z,64.47
2023-03-29T09:06:12.326Z,64.57
2023-03-29T09:07:12.343Z,63.32
2023-03-29T09:08:12.291Z,62.40
2023-03-29T09:09:12.314Z,64.87
2023-03-29T09:10:12.266Z,65.66
2023-03-29T09:11:18.744Z,63.56
2023-03-29T09:12:12.248Z,64.14
2023-03-29T09:13:12.275Z,63.93
2023-03-29T09:14:12.204Z,64.84
2023-03-29T09:15:12.200Z,63.46
2023-03-29T09:16:12.254Z,61.97
2023-03-29T09:17:12.229Z,62.48
2023-03-29T09:18:12.234Z,64.20
2023-03-29T09:19:12.144Z,64.25
2023-03-29T09:20:12.148Z,62.32
2023-03-29T09:21:12.117Z,61.51
2023-03-29T09:22:12.100Z,63.33
2023-03-29T09:23:12.121Z,60.74
2023-03-29T09:24:12.100Z,61.68
2023-03-29T09:25:12.060Z,61.14
2023-03-29T09:26:12.065Z,61.14
2023-03-29T09:27:12.056Z,60.22
2023-03-29T09:28:12.041Z,61.11
2023-03-29T09:29:12.027Z,62.10
2023-03-29T09:30:12.003Z,60.27
2023-03-29T09:31:12.021Z,60.01
2023-03-29T09:32:11.970Z,56.87
2023-03-29T09:33:12.052Z,58.11
2023-03-29T09:34:13.706Z,60.37
2023-03-29T09:35:11.920Z,57.98
2023-03-29T09:36:12.003Z,57.28
2023-03-29T09:37:11.945Z,57.88
2023-03-29T09:38:11.904Z,59.30
2023-03-29T09:39:11.866Z,57.35
2023-03-29T09:40:11.873Z,57.62
2023-03-29T09:41:11.852Z,57.73
2023-03-29T09:42:11.851Z,55.60
2023-03-29T09:43:11.876Z,56.77
2023-03-29T09:44:20.755Z,59.23
2023-03-29T09:45:11.792Z,59.12
2023-03-29T09:46:11.827Z,59.00
2023-03-29T09:47:11.766Z,59.33
2023-03-29T09:48:11.819Z,57.37
2023-03-29T09:49:11.770Z,55.96
2023-03-29T09:50:23.149Z,57.40
2023-03-29T09:51:11.713Z,56.90
2023-03-29T09:52:11.707Z,58.01
2023-03-29T09:53:11.722Z,59.66
2023-03-29T09:54:11.675Z,57.53
2023-03-29T09:55:11.660Z,56.21
2023-03-29T09:56:11.675Z,56.57
2023-03-29T09:57:11.694Z,56.67
2023-03-29T09:58:11.639Z,58.94
2023-03-29T09:59:11.710Z,56.99
2023-03-29T10:00:11.595Z,55.40
2023-03-29T10:01:11.591Z,56.03
2023-03-29T10:02:11.598Z,54.99
2023-03-29T10:03:11.619Z,56.28
2023-03-29T10:04:11.646Z,55.57
2023-03-29T10:05:11.586Z,57.42
2023-03-29T10:06:11.527Z,56.74
2023-03-29T10:07:11.506Z,56.51
2023-03-29T10:08:11.509Z,54.71
2023-03-29T10:09:11.493Z,56.54
2023-03-29T10:10:11.461Z,58.16
2023-03-29T10:11:11.452Z,58.26
2023-03-29T10:12:11.469Z,57.24
2023-03-29T10:13:11.434Z,57.24
2023-03-29T10:14:11.414Z,57.93
2023-03-29T10:15:19.667Z,56.44
2023-03-29T10:16:11.390Z,57.12
2023-03-29T10:17:11.364Z,57.24
2023-03-29T10:18:11.487Z,57.37
2023-03-29T10:19:11.340Z,57.28
2023-03-29T10:20:11.352Z,57.64
2023-03-29T10:21:11.332Z,60.37
2023-03-29T10:22:11.334Z,59.03
2023-03-29T10:23:11.284Z,58.26
2023-03-29T10:24:11.304Z,56.28
2023-03-29T10:25:11.319Z,54.97
2023-03-29T10:26:11.259Z,55.68
2023-03-29T10:27:11.314Z,56.84
2023-03-29T10:28:11.280Z,56.84
2023-03-29T10:29:11.284Z,58.97
2023-03-29T10:30:11.220Z,56.18
2023-03-29T10:31:11.198Z,54.64
2023-03-29T10:32:11.263Z,53.90
2023-03-29T10:33:11.256Z,56.05
2023-03-29T10:34:11.189Z,56.63
2023-03-29T10:35:11.126Z,54.51
2023-03-29T10:36:11.181Z,55.68
2023-03-29T10:37:11.121Z,56.74
2023-03-29T10:38:11.096Z,57.42
2023-03-29T10:39:11.102Z,55.85
2023-03-29T10:40:11.105Z,55.60
2023-03-29T10:41:11.042Z,54.89
2023-03-29T10:42:11.046Z,56.71
2023-03-29T10:43:11.032Z,53.96
2023-03-29T10:44:11.072Z,52.97
2023-03-29T10:45:11.057Z,53.67
2023-03-29T10:46:11.042Z,53.38
2023-03-29T10:47:10.991Z,53.55
2023-03-29T10:48:11.057Z,52.97
2023-03-29T10:49:11.024Z,54.96
2023-03-29T10:50:10.946Z,53.96
2023-03-29T10:51:10.911Z,57.39
2023-03-29T10:52:10.899Z,56.48
2023-03-29T10:53:10.937Z,54.58
2023-03-29T10:54:10.871Z,55.52
2023-03-29T10:55:10.857Z,55.29
2023-03-29T10:56:12.221Z,54.99
2023-03-29T10:57:10.963Z,55.42
2023-03-29T10:58:10.977Z,55.82
2023-03-29T10:59:13.391Z,55.73
2023-03-29T11:00:11.408Z,56.33
2023-03-29T11:01:10.797Z,56.56
2023-03-29T11:02:10.782Z,57.17
2023-03-29T11:03:12.019Z,57.67
2023-03-29T11:04:10.837Z,57.37
2023-03-29T11:05:10.781Z,57.37
2023-03-29T11:06:10.719Z,57.29
2023-03-29T11:07:10.715Z,58.00
2023-03-29T11:08:10.743Z,59.48
2023-03-29T11:09:10.720Z,58.80
2023-03-29T11:10:10.679Z,61.13
2023-03-29T11:11:10.650Z,59.88
2023-03-29T11:12:15.973Z,59.14
2023-03-29T11:13:10.622Z,59.25
2023-03-29T11:14:10.635Z,60.39
2023-03-29T11:15:10.612Z,60.26
2023-03-29T11:16:10.639Z,59.95
2023-03-29T11:17:10.576Z,59.99
2023-03-29T11:18:10.595Z,60.79
2023-03-29T11:19:10.606Z,61.10
2023-03-29T11:20:10.568Z,59.95
2023-03-29T11:21:10.963Z,59.80
2023-03-29T11:22:10.529Z,58.92
2023-03-29T11:23:10.493Z,59.85
2023-03-29T11:24:10.518Z,61.17
2023-03-29T11:25:10.504Z,61.04
2023-03-29T11:26:10.454Z,60.43
2023-03-29T11:27:10.431Z,62.15
2023-03-29T11:28:10.448Z,60.69
2023-03-29T11:29:10.461Z,63.09
2023-03-29T11:30:10.418Z,60.46
2023-03-29T11:31:10.390Z,62.72
2023-03-29T11:32:10.382Z,61.00
2023-03-29T11:33:10.369Z,61.10
2023-03-29T11:34:10.619Z,61.40
2023-03-29T11:35:10.403Z,61.47
2023-03-29T11:36:10.346Z,62.76
2023-03-29T11:37:10.313Z,59.70
2023-03-29T11:38:10.336Z,60.61
2023-03-29T11:39:10.312Z,60.84
2023-03-29T11:40:10.286Z,61.68
2023-03-29T11:41:10.337Z,62.11
2023-03-29T11:42:10.246Z,61.37
2023-03-29T11:43:10.327Z,61.04
2023-03-29T11:44:10.232Z,61.52
2023-03-29T11:45:10.252Z,60.71
2023-03-29T11:46:10.226Z,60.30
2023-03-29T11:47:10.183Z,60.53
2023-03-29T11:48:10.237Z,62.76
2023-03-29T11:49:10.238Z,60.74
2023-03-29T11:50:10.170Z,60.94
2023-03-29T11:51:10.119Z,61.35
2023-03-29T11:52:10.125Z,61.47
2023-03-29T11:53:10.100Z,62.99
2023-03-29T11:54:10.103Z,62.99
2023-03-29T11:55:10.322Z,61.62
2023-03-29T11:56:10.117Z,63.37
2023-03-29T11:57:10.081Z,63.47
2023-03-29T11:58:10.030Z,64.82
2023-03-29T11:59:10.047Z,64.54
2023-03-29T12:00:10.049Z,65.15
2023-03-29T12:01:09.980Z,66.60
2023-03-29T12:02:10.006Z,65.05
2023-03-29T12:03:09.998Z,65.36
2023-03-29T12:04:10.005Z,64.24
2023-03-29T12:05:10.029Z,64.24
2023-03-29T12:06:09.922Z,64.51
2023-03-29T12:07:09.908Z,64.28
2023-03-29T12:08:09.897Z,62.66
2023-03-29T12:09:09.884Z,62.84
2023-03-29T12:10:10.051Z,63.57
2023-03-29T12:11:09.862Z,65.05
2023-03-29T12:12:09.923Z,67.21
2023-03-29T12:13:09.824Z,68.26
2023-03-29T12:14:09.814Z,69.78
2023-03-29T12:15:09.842Z,70.21
2023-03-29T12:16:09.845Z,70.76
2023-03-29T12:17:09.794Z,71.67
2023-03-29T12:18:09.804Z,72.28
2023-03-29T12:19:09.759Z,71.88
2023-03-29T12:20:09.839Z,71.36
2023-03-29T12:21:09.779Z,71.53
2023-03-29T12:22:09.721Z,70.92
2023-03-29T12:23:09.738Z,70.89
2023-03-29T12:24:09.677Z,69.27
2023-03-29T12:25:10.395Z,70.56
2023-03-29T12:26:09.703Z,68.73
2023-03-29T12:27:09.634Z,68.35
2023-03-29T12:28:09.633Z,68.70
2023-03-29T12:29:09.645Z,69.30
2023-03-29T12:30:09.674Z,69.20
2023-03-29T12:31:09.624Z,69.30
2023-03-29T12:32:09.710Z,69.64
2023-03-29T12:33:09.598Z,69.54
2023-03-29T12:34:09.547Z,69.95
2023-03-29T12:35:09.580Z,70.04
2023-03-29T12:36:09.600Z,69.13
2023-03-29T12:37:09.511Z,69.40
2023-03-29T12:38:09.506Z,68.90
2023-03-29T12:39:09.496Z,69.20
2023-03-29T12:40:09.467Z,70.04
2023-03-29T12:41:09.480Z,71.30
2023-03-29T12:42:09.477Z,71.40
2023-03-29T12:43:09.435Z,71.50
2023-03-29T12:44:10.756Z,72.52
2023-03-29T12:45:09.483Z,72.62
2023-03-29T12:46:09.461Z,71.88
2023-03-29T12:47:09.378Z,72.17
2023-03-29T12:48:09.417Z,73.19
2023-03-29T12:49:09.351Z,74.21
2023-03-29T12:50:09.391Z,74.10
2023-03-29T12:51:09.357Z,74.07
2023-03-29T12:52:09.340Z,74.10